sensor_id;sensor_type;location;lat;lon;timestamp;P1;durP1;ratioP1;P2;durP2;ratioP2
25437;SDS011;13364;49.084;9.978;2022-08-19T00:02:02;23.38;;;20.02;;
25437;SDS011;13364;49.084;9.978;2022-08-19T00:04:30;27.63;;;21.35;;
25437;SDS011;13364;49.084;9.978;2022-08-19T00:09:26;29.40;;;22.80;;
25437;SDS011;13364;49.084;9.978;2022-08-19T00:11:54;28.90;;;23.05;;
25437;SDS011;13364;49.084;9.978;2022-08-19T00:14:22;26.25;;;22.02;;
25437;SDS011;13364;49.084;9.978;2022-08-19T00:16:52;27.33;;;23.05;;
25437;SDS011;13364;49.084;9.978;2022-08-19T00:19:21;26.02;;;21.58;;
25437;SDS011;13364;49.084;9.978;2022-08-19T00:21:50;25.70;;;21.38;;
25437;SDS011;13364;49.084;9.978;2022-08-19T00:24:17;33.20;;;25.33;;
25437;SDS011;13364;49.084;9.978;2022-08-19T00:26:45;31.15;;;24.60;;
25437;SDS011;13364;49.084;9.978;2022-08-19T00:29:13;28.90;;;23.45;;
25437;SDS011;13364;49.084;9.978;2022-08-19T00:31:43;33.45;;;24.02;;
25437;SDS011;13364;49.084;9.978;2022-08-19T00:34:11;29.42;;;24.08;;
25437;SDS011;13364;49.084;9.978;2022-08-19T00:36:41;30.73;;;23.38;;
25437;SDS011;13364;49.084;9.978;2022-08-19T00:39:09;34.88;;;24.63;;
25437;SDS011;13364;49.084;9.978;2022-08-19T00:41:37;36.92;;;25.73;;
25437;SDS011;13364;49.084;9.978;2022-08-19T00:44:06;29.77;;;24.05;;
25437;SDS011;13364;49.084;9.978;2022-08-19T00:46:34;32.88;;;25.33;;
25437;SDS011;13364;49.084;9.978;2022-08-19T00:49:13;35.65;;;26.88;;
25437;SDS011;13364;49.084;9.978;2022-08-19T00:51:44;30.67;;;24.52;;
25437;SDS011;13364;49.084;9.978;2022-08-19T00:54:13;30.88;;;24.75;;
25437;SDS011;13364;49.084;9.978;2022-08-19T00:56:42;28.17;;;22.80;;
25437;SDS011;13364;49.084;9.978;2022-08-19T00:59:10;30.80;;;24.45;;
25437;SDS011;13364;49.084;9.978;2022-08-19T01:01:59;32.78;;;24.27;;
25437;SDS011;13364;49.084;9.978;2022-08-19T01:04:26;30.88;;;24.00;;
25437;SDS011;13364;49.084;9.978;2022-08-19T01:06:53;34.00;;;26.45;;
25437;SDS011;13364;49.084;9.978;2022-08-19T01:09:21;30.83;;;23.92;;
25437;SDS011;13364;49.084;9.978;2022-08-19T01:11:49;31.08;;;24.52;;
25437;SDS011;13364;49.084;9.978;2022-08-19T01:14:17;30.17;;;24.35;;
25437;SDS011;13364;49.084;9.978;2022-08-19T01:16:45;32.58;;;26.25;;
25437;SDS011;13364;49.084;9.978;2022-08-19T01:19:19;31.70;;;25.20;;
25437;SDS011;13364;49.084;9.978;2022-08-19T01:25:02;33.72;;;24.67;;
25437;SDS011;13364;49.084;9.978;2022-08-19T01:27:41;31.35;;;25.02;;
25437;SDS011;13364;49.084;9.978;2022-08-19T01:30:19;34.17;;;26.42;;
25437;SDS011;13364;49.084;9.978;2022-08-19T01:32:49;34.20;;;26.23;;
25437;SDS011;13364;49.084;9.978;2022-08-19T01:35:19;33.93;;;26.17;;
25437;SDS011;13364;49.084;9.978;2022-08-19T01:37:51;33.60;;;25.70;;
25437;SDS011;13364;49.084;9.978;2022-08-19T01:40:26;34.17;;;24.80;;
25437;SDS011;13364;49.084;9.978;2022-08-19T01:42:58;35.33;;;26.30;;
25437;SDS011;13364;49.084;9.978;2022-08-19T01:45:26;33.30;;;25.90;;
25437;SDS011;13364;49.084;9.978;2022-08-19T01:47:55;35.75;;;27.08;;
25437;SDS011;13364;49.084;9.978;2022-08-19T01:50:27;34.78;;;25.25;;
25437;SDS011;13364;49.084;9.978;2022-08-19T01:52:55;34.53;;;25.88;;
25437;SDS011;13364;49.084;9.978;2022-08-19T01:55:33;35.85;;;27.60;;
25437;SDS011;13364;49.084;9.978;2022-08-19T01:58:08;33.47;;;25.98;;
25437;SDS011;13364;49.084;9.978;2022-08-19T02:00:38;37.15;;;26.75;;
25437;SDS011;13364;49.084;9.978;2022-08-19T02:03:05;33.25;;;26.13;;
25437;SDS011;13364;49.084;9.978;2022-08-19T02:05:33;33.60;;;25.10;;
25437;SDS011;13364;49.084;9.978;2022-08-19T02:08:00;34.25;;;25.75;;
25437;SDS011;13364;49.084;9.978;2022-08-19T02:10:27;30.98;;;24.50;;
25437;SDS011;13364;49.084;9.978;2022-08-19T02:12:54;34.63;;;24.60;;
25437;SDS011;13364;49.084;9.978;2022-08-19T02:15:21;31.58;;;24.92;;
25437;SDS011;13364;49.084;9.978;2022-08-19T02:17:48;30.85;;;24.30;;
25437;SDS011;13364;49.084;9.978;2022-08-19T02:20:16;29.45;;;24.45;;
25437;SDS011;13364;49.084;9.978;2022-08-19T02:22:43;33.35;;;25.63;;
25437;SDS011;13364;49.084;9.978;2022-08-19T02:25:11;32.08;;;24.90;;
25437;SDS011;13364;49.084;9.978;2022-08-19T02:27:41;33.53;;;25.15;;
25437;SDS011;13364;49.084;9.978;2022-08-19T02:30:10;33.28;;;25.02;;
25437;SDS011;13364;49.084;9.978;2022-08-19T02:32:39;31.73;;;25.20;;
25437;SDS011;13364;49.084;9.978;2022-08-19T02:35:10;31.42;;;24.10;;
25437;SDS011;13364;49.084;9.978;2022-08-19T02:37:38;31.45;;;24.75;;
25437;SDS011;13364;49.084;9.978;2022-08-19T02:40:24;32.00;;;23.75;;
25437;SDS011;13364;49.084;9.978;2022-08-19T02:42:51;32.10;;;25.10;;
25437;SDS011;13364;49.084;9.978;2022-08-19T02:45:18;32.28;;;24.30;;
25437;SDS011;13364;49.084;9.978;2022-08-19T02:47:46;31.65;;;24.42;;
25437;SDS011;13364;49.084;9.978;2022-08-19T02:50:13;28.75;;;24.38;;
25437;SDS011;13364;49.084;9.978;2022-08-19T02:52:40;31.98;;;25.33;;
25437;SDS011;13364;49.084;9.978;2022-08-19T02:55:08;33.40;;;24.75;;
25437;SDS011;13364;49.084;9.978;2022-08-19T02:57:35;32.20;;;24.25;;
25437;SDS011;13364;49.084;9.978;2022-08-19T03:00:06;33.90;;;24.98;;
25437;SDS011;13364;49.084;9.978;2022-08-19T03:02:34;31.83;;;24.45;;
25437;SDS011;13364;49.084;9.978;2022-08-19T03:05:02;36.30;;;24.90;;
25437;SDS011;13364;49.084;9.978;2022-08-19T03:07:30;30.25;;;23.45;;
25437;SDS011;13364;49.084;9.978;2022-08-19T03:09:58;34.05;;;24.73;;
25437;SDS011;13364;49.084;9.978;2022-08-19T03:12:25;32.15;;;24.05;;
25437;SDS011;13364;49.084;9.978;2022-08-19T03:14:52;27.13;;;22.23;;
25437;SDS011;13364;49.084;9.978;2022-08-19T03:17:19;34.92;;;24.75;;
25437;SDS011;13364;49.084;9.978;2022-08-19T03:19:46;31.83;;;24.33;;
25437;SDS011;13364;49.084;9.978;2022-08-19T03:22:13;35.03;;;24.27;;
25437;SDS011;13364;49.084;9.978;2022-08-19T03:24:40;31.35;;;24.77;;
25437;SDS011;13364;49.084;9.978;2022-08-19T03:27:07;27.63;;;21.95;;
25437;SDS011;13364;49.084;9.978;2022-08-19T03:29:36;32.30;;;24.02;;
25437;SDS011;13364;49.084;9.978;2022-08-19T03:32:09;31.42;;;23.02;;
25437;SDS011;13364;49.084;9.978;2022-08-19T03:34:56;32.55;;;24.10;;
25437;SDS011;13364;49.084;9.978;2022-08-19T03:37:23;33.05;;;25.58;;
25437;SDS011;13364;49.084;9.978;2022-08-19T03:39:51;35.83;;;25.90;;
25437;SDS011;13364;49.084;9.978;2022-08-19T03:42:18;30.17;;;22.48;;
25437;SDS011;13364;49.084;9.978;2022-08-19T03:45:05;33.08;;;24.42;;
25437;SDS011;13364;49.084;9.978;2022-08-19T03:47:33;32.58;;;23.63;;
25437;SDS011;13364;49.084;9.978;2022-08-19T03:50:00;28.98;;;23.27;;
25437;SDS011;13364;49.084;9.978;2022-08-19T03:52:28;37.80;;;26.52;;
25437;SDS011;13364;49.084;9.978;2022-08-19T03:54:55;33.50;;;24.88;;
25437;SDS011;13364;49.084;9.978;2022-08-19T03:57:22;33.53;;;25.30;;
25437;SDS011;13364;49.084;9.978;2022-08-19T03:59:57;29.70;;;23.95;;
25437;SDS011;13364;49.084;9.978;2022-08-19T04:02:38;32.55;;;25.73;;
25437;SDS011;13364;49.084;9.978;2022-08-19T04:05:06;32.35;;;24.95;;
25437;SDS011;13364;49.084;9.978;2022-08-19T04:07:34;33.05;;;24.80;;
25437;SDS011;13364;49.084;9.978;2022-08-19T04:10:02;35.50;;;24.23;;
25437;SDS011;13364;49.084;9.978;2022-08-19T04:12:30;30.92;;;24.30;;
25437;SDS011;13364;49.084;9.978;2022-08-19T04:14:57;31.17;;;24.50;;
25437;SDS011;13364;49.084;9.978;2022-08-19T04:17:24;34.45;;;24.42;;
25437;SDS011;13364;49.084;9.978;2022-08-19T04:19:52;30.00;;;23.20;;
25437;SDS011;13364;49.084;9.978;2022-08-19T04:22:19;34.33;;;24.13;;
25437;SDS011;13364;49.084;9.978;2022-08-19T04:24:46;32.10;;;24.02;;
25437;SDS011;13364;49.084;9.978;2022-08-19T04:27:13;34.72;;;25.80;;
25437;SDS011;13364;49.084;9.978;2022-08-19T04:29:41;34.42;;;24.80;;
25437;SDS011;13364;49.084;9.978;2022-08-19T04:32:10;33.83;;;24.70;;
25437;SDS011;13364;49.084;9.978;2022-08-19T04:34:37;29.40;;;23.90;;
25437;SDS011;13364;49.084;9.978;2022-08-19T04:37:25;30.92;;;24.38;;
25437;SDS011;13364;49.084;9.978;2022-08-19T04:40:00;31.48;;;23.98;;
25437;SDS011;13364;49.084;9.978;2022-08-19T04:42:46;32.15;;;23.73;;
25437;SDS011;13364;49.084;9.978;2022-08-19T04:45:14;33.03;;;24.75;;
25437;SDS011;13364;49.084;9.978;2022-08-19T04:47:43;31.60;;;23.35;;
25437;SDS011;13364;49.084;9.978;2022-08-19T04:50:23;33.03;;;24.70;;
25437;SDS011;13364;49.084;9.978;2022-08-19T04:52:51;30.38;;;23.85;;
25437;SDS011;13364;49.084;9.978;2022-08-19T04:55:18;31.85;;;25.13;;
25437;SDS011;13364;49.084;9.978;2022-08-19T04:57:46;33.20;;;24.48;;
25437;SDS011;13364;49.084;9.978;2022-08-19T05:00:13;32.70;;;24.67;;
25437;SDS011;13364;49.084;9.978;2022-08-19T05:02:40;33.63;;;24.30;;
25437;SDS011;13364;49.084;9.978;2022-08-19T05:05:07;32.67;;;24.75;;
25437;SDS011;13364;49.084;9.978;2022-08-19T05:07:35;30.67;;;24.27;;
25437;SDS011;13364;49.084;9.978;2022-08-19T05:10:04;29.55;;;24.15;;
25437;SDS011;13364;49.084;9.978;2022-08-19T05:12:31;28.88;;;23.35;;
25437;SDS011;13364;49.084;9.978;2022-08-19T05:14:58;30.00;;;23.95;;
25437;SDS011;13364;49.084;9.978;2022-08-19T05:17:26;31.60;;;23.30;;
25437;SDS011;13364;49.084;9.978;2022-08-19T05:20:00;36.05;;;25.20;;
25437;SDS011;13364;49.084;9.978;2022-08-19T05:22:46;33.10;;;23.95;;
25437;SDS011;13364;49.084;9.978;2022-08-19T05:25:15;30.02;;;24.00;;
25437;SDS011;13364;49.084;9.978;2022-08-19T05:27:47;31.73;;;23.40;;
25437;SDS011;13364;49.084;9.978;2022-08-19T05:30:14;34.15;;;25.15;;
25437;SDS011;13364;49.084;9.978;2022-08-19T05:32:43;30.38;;;24.42;;
25437;SDS011;13364;49.084;9.978;2022-08-19T05:35:10;31.55;;;23.40;;
25437;SDS011;13364;49.084;9.978;2022-08-19T05:37:38;30.63;;;23.08;;
25437;SDS011;13364;49.084;9.978;2022-08-19T05:40:08;31.15;;;24.60;;
25437;SDS011;13364;49.084;9.978;2022-08-19T05:42:36;34.85;;;25.65;;
25437;SDS011;13364;49.084;9.978;2022-08-19T05:45:03;29.30;;;23.48;;
25437;SDS011;13364;49.084;9.978;2022-08-19T05:47:31;34.13;;;24.55;;
25437;SDS011;13364;49.084;9.978;2022-08-19T05:49:58;30.80;;;24.45;;
25437;SDS011;13364;49.084;9.978;2022-08-19T05:52:30;32.20;;;25.15;;
25437;SDS011;13364;49.084;9.978;2022-08-19T05:54:58;32.50;;;24.70;;
25437;SDS011;13364;49.084;9.978;2022-08-19T05:57:26;33.85;;;26.02;;
25437;SDS011;13364;49.084;9.978;2022-08-19T05:59:55;32.88;;;24.73;;
25437;SDS011;13364;49.084;9.978;2022-08-19T06:02:29;35.00;;;25.58;;
25437;SDS011;13364;49.084;9.978;2022-08-19T06:04:57;31.10;;;24.80;;
25437;SDS011;13364;49.084;9.978;2022-08-19T06:07:24;29.02;;;23.15;;
25437;SDS011;13364;49.084;9.978;2022-08-19T06:09:51;34.78;;;24.48;;
25437;SDS011;13364;49.084;9.978;2022-08-19T06:12:28;33.70;;;24.70;;
25437;SDS011;13364;49.084;9.978;2022-08-19T06:15:02;30.67;;;23.40;;
25437;SDS011;13364;49.084;9.978;2022-08-19T06:17:32;32.05;;;24.52;;
25437;SDS011;13364;49.084;9.978;2022-08-19T06:20:02;31.67;;;25.53;;
25437;SDS011;13364;49.084;9.978;2022-08-19T06:22:31;33.95;;;24.90;;
25437;SDS011;13364;49.084;9.978;2022-08-19T06:25:03;36.28;;;25.88;;
25437;SDS011;13364;49.084;9.978;2022-08-19T06:27:30;33.70;;;25.98;;
25437;SDS011;13364;49.084;9.978;2022-08-19T06:29:59;35.10;;;25.52;;
25437;SDS011;13364;49.084;9.978;2022-08-19T06:32:26;36.40;;;27.70;;
25437;SDS011;13364;49.084;9.978;2022-08-19T06:34:53;38.97;;;25.58;;
25437;SDS011;13364;49.084;9.978;2022-08-19T06:37:21;39.20;;;27.35;;
25437;SDS011;13364;49.084;9.978;2022-08-19T06:39:48;35.05;;;26.42;;
25437;SDS011;13364;49.084;9.978;2022-08-19T06:42:16;34.97;;;26.33;;
25437;SDS011;13364;49.084;9.978;2022-08-19T06:44:49;37.08;;;27.30;;
25437;SDS011;13364;49.084;9.978;2022-08-19T06:47:19;34.22;;;26.88;;
25437;SDS011;13364;49.084;9.978;2022-08-19T06:49:53;36.58;;;28.17;;
25437;SDS011;13364;49.084;9.978;2022-08-19T06:52:35;39.35;;;27.85;;
25437;SDS011;13364;49.084;9.978;2022-08-19T06:55:04;40.75;;;27.35;;
25437;SDS011;13364;49.084;9.978;2022-08-19T06:57:32;37.33;;;27.00;;
25437;SDS011;13364;49.084;9.978;2022-08-19T07:00:00;38.10;;;26.65;;
25437;SDS011;13364;49.084;9.978;2022-08-19T07:02:27;38.22;;;27.27;;
25437;SDS011;13364;49.084;9.978;2022-08-19T07:04:54;32.78;;;26.08;;
25437;SDS011;13364;49.084;9.978;2022-08-19T07:09:51;32.58;;;26.08;;
25437;SDS011;13364;49.084;9.978;2022-08-19T07:12:30;37.22;;;26.20;;
25437;SDS011;13364;49.084;9.978;2022-08-19T07:15:04;35.88;;;26.73;;
25437;SDS011;13364;49.084;9.978;2022-08-19T07:17:32;33.83;;;26.00;;
25437;SDS011;13364;49.084;9.978;2022-08-19T07:20:00;35.13;;;25.85;;
25437;SDS011;13364;49.084;9.978;2022-08-19T07:22:32;35.67;;;26.33;;
25437;SDS011;13364;49.084;9.978;2022-08-19T07:25:00;31.58;;;24.98;;
25437;SDS011;13364;49.084;9.978;2022-08-19T07:30:01;34.47;;;25.63;;
25437;SDS011;13364;49.084;9.978;2022-08-19T07:32:28;34.20;;;25.55;;
25437;SDS011;13364;49.084;9.978;2022-08-19T07:34:58;37.37;;;24.77;;
25437;SDS011;13364;49.084;9.978;2022-08-19T07:37:27;34.95;;;24.92;;
25437;SDS011;13364;49.084;9.978;2022-08-19T07:39:59;32.30;;;25.40;;
25437;SDS011;13364;49.084;9.978;2022-08-19T07:42:27;35.03;;;25.02;;
25437;SDS011;13364;49.084;9.978;2022-08-19T07:44:56;33.47;;;26.15;;
25437;SDS011;13364;49.084;9.978;2022-08-19T07:47:25;32.60;;;24.42;;
25437;SDS011;13364;49.084;9.978;2022-08-19T07:50:12;33.75;;;25.35;;
25437;SDS011;13364;49.084;9.978;2022-08-19T07:52:39;34.50;;;24.00;;
25437;SDS011;13364;49.084;9.978;2022-08-19T07:55:08;33.05;;;24.75;;
25437;SDS011;13364;49.084;9.978;2022-08-19T07:57:56;31.60;;;25.27;;
25437;SDS011;13364;49.084;9.978;2022-08-19T08:00:24;34.42;;;25.40;;
25437;SDS011;13364;49.084;9.978;2022-08-19T08:02:52;33.67;;;25.25;;
25437;SDS011;13364;49.084;9.978;2022-08-19T08:05:21;34.20;;;25.65;;
25437;SDS011;13364;49.084;9.978;2022-08-19T08:08:09;32.85;;;23.38;;
25437;SDS011;13364;49.084;9.978;2022-08-19T08:11:13;31.85;;;24.20;;
25437;SDS011;13364;49.084;9.978;2022-08-19T08:13:45;34.03;;;25.25;;
25437;SDS011;13364;49.084;9.978;2022-08-19T08:16:27;33.80;;;25.02;;
25437;SDS011;13364;49.084;9.978;2022-08-19T08:18:57;34.95;;;26.33;;
25437;SDS011;13364;49.084;9.978;2022-08-19T08:21:26;44.43;;;26.80;;
25437;SDS011;13364;49.084;9.978;2022-08-19T08:23:53;32.83;;;25.75;;
25437;SDS011;13364;49.084;9.978;2022-08-19T08:26:22;36.55;;;26.35;;
25437;SDS011;13364;49.084;9.978;2022-08-19T08:28:49;34.13;;;25.80;;
25437;SDS011;13364;49.084;9.978;2022-08-19T08:31:17;35.03;;;25.25;;
25437;SDS011;13364;49.084;9.978;2022-08-19T08:33:45;34.70;;;25.33;;
25437;SDS011;13364;49.084;9.978;2022-08-19T08:36:14;34.42;;;26.55;;
25437;SDS011;13364;49.084;9.978;2022-08-19T08:38:42;34.75;;;25.05;;
25437;SDS011;13364;49.084;9.978;2022-08-19T08:41:18;34.10;;;25.00;;
25437;SDS011;13364;49.084;9.978;2022-08-19T08:44:05;33.75;;;25.35;;
25437;SDS011;13364;49.084;9.978;2022-08-19T08:46:39;34.72;;;26.20;;
25437;SDS011;13364;49.084;9.978;2022-08-19T08:54:25;29.83;;;24.63;;
25437;SDS011;13364;49.084;9.978;2022-08-19T08:57:02;32.45;;;24.00;;
25437;SDS011;13364;49.084;9.978;2022-08-19T08:59:34;32.83;;;25.02;;
25437;SDS011;13364;49.084;9.978;2022-08-19T09:02:05;30.33;;;25.00;;
25437;SDS011;13364;49.084;9.978;2022-08-19T09:04:33;30.20;;;23.58;;
25437;SDS011;13364;49.084;9.978;2022-08-19T10:13:26;41.78;;;28.55;;
25437;SDS011;13364;49.084;9.978;2022-08-19T10:15:55;39.72;;;29.50;;
25437;SDS011;13364;49.084;9.978;2022-08-19T10:18:28;37.85;;;27.58;;
25437;SDS011;13364;49.084;9.978;2022-08-19T10:21:02;37.42;;;28.98;;
25437;SDS011;13364;49.084;9.978;2022-08-19T10:23:37;39.08;;;29.13;;
25437;SDS011;13364;49.084;9.978;2022-08-19T10:26:06;41.40;;;29.38;;
25437;SDS011;13364;49.084;9.978;2022-08-19T10:28:34;35.72;;;28.77;;
25437;SDS011;13364;49.084;9.978;2022-08-19T10:31:09;36.67;;;29.48;;
25437;SDS011;13364;49.084;9.978;2022-08-19T10:33:38;40.60;;;31.00;;
25437;SDS011;13364;49.084;9.978;2022-08-19T10:36:20;40.38;;;28.23;;
25437;SDS011;13364;49.084;9.978;2022-08-19T10:38:51;40.47;;;30.48;;
25437;SDS011;13364;49.084;9.978;2022-08-19T10:41:27;40.78;;;31.85;;
25437;SDS011;13364;49.084;9.978;2022-08-19T10:43:56;41.10;;;30.55;;
25437;SDS011;13364;49.084;9.978;2022-08-19T10:46:29;38.10;;;28.90;;
25437;SDS011;13364;49.084;9.978;2022-08-19T10:48:59;38.95;;;30.13;;
25437;SDS011;13364;49.084;9.978;2022-08-19T10:51:28;41.00;;;30.93;;
25437;SDS011;13364;49.084;9.978;2022-08-19T10:54:15;45.03;;;29.98;;
25437;SDS011;13364;49.084;9.978;2022-08-19T10:56:56;42.00;;;30.90;;
25437;SDS011;13364;49.084;9.978;2022-08-19T10:59:28;45.35;;;30.55;;
25437;SDS011;13364;49.084;9.978;2022-08-19T11:02:02;41.33;;;29.48;;
25437;SDS011;13364;49.084;9.978;2022-08-19T11:04:31;37.13;;;29.58;;
25437;SDS011;13364;49.084;9.978;2022-08-19T11:07:01;38.78;;;30.20;;
25437;SDS011;13364;49.084;9.978;2022-08-19T11:09:29;43.58;;;30.15;;
25437;SDS011;13364;49.084;9.978;2022-08-19T11:12:00;38.35;;;28.50;;
25437;SDS011;13364;49.084;9.978;2022-08-19T11:14:30;43.58;;;29.75;;
25437;SDS011;13364;49.084;9.978;2022-08-19T11:16:59;37.90;;;29.08;;
25437;SDS011;13364;49.084;9.978;2022-08-19T11:19:28;41.40;;;29.95;;
25437;SDS011;13364;49.084;9.978;2022-08-19T11:21:55;39.65;;;30.33;;
25437;SDS011;13364;49.084;9.978;2022-08-19T11:24:25;44.30;;;31.33;;
25437;SDS011;13364;49.084;9.978;2022-08-19T11:26:54;40.20;;;30.92;;
25437;SDS011;13364;49.084;9.978;2022-08-19T11:29:28;38.30;;;29.52;;
25437;SDS011;13364;49.084;9.978;2022-08-19T11:31:55;32.78;;;27.08;;
25437;SDS011;13364;49.084;9.978;2022-08-19T11:34:23;38.55;;;29.55;;
25437;SDS011;13364;49.084;9.978;2022-08-19T11:36:54;38.78;;;29.77;;
25437;SDS011;13364;49.084;9.978;2022-08-19T11:39:26;39.58;;;30.35;;
25437;SDS011;13364;49.084;9.978;2022-08-19T11:41:55;38.75;;;28.83;;
25437;SDS011;13364;49.084;9.978;2022-08-19T11:44:25;37.35;;;29.13;;
25437;SDS011;13364;49.084;9.978;2022-08-19T11:46:52;41.80;;;30.35;;
25437;SDS011;13364;49.084;9.978;2022-08-19T11:49:20;40.58;;;30.67;;
25437;SDS011;13364;49.084;9.978;2022-08-19T11:51:47;40.05;;;30.73;;
25437;SDS011;13364;49.084;9.978;2022-08-19T11:54:19;43.92;;;31.45;;
25437;SDS011;13364;49.084;9.978;2022-08-19T11:56:46;39.33;;;30.67;;
25437;SDS011;13364;49.084;9.978;2022-08-19T11:59:15;40.03;;;30.50;;
25437;SDS011;13364;49.084;9.978;2022-08-19T12:01:42;38.28;;;29.88;;
25437;SDS011;13364;49.084;9.978;2022-08-19T12:04:10;43.30;;;31.75;;
25437;SDS011;13364;49.084;9.978;2022-08-19T12:06:38;40.92;;;32.28;;
25437;SDS011;13364;49.084;9.978;2022-08-19T12:09:08;42.60;;;30.55;;
25437;SDS011;13364;49.084;9.978;2022-08-19T12:11:37;44.67;;;32.15;;
25437;SDS011;13364;49.084;9.978;2022-08-19T12:14:05;39.13;;;30.75;;
25437;SDS011;13364;49.084;9.978;2022-08-19T12:16:40;41.42;;;30.90;;
25437;SDS011;13364;49.084;9.978;2022-08-19T12:19:17;41.25;;;30.75;;
25437;SDS011;13364;49.084;9.978;2022-08-19T12:21:48;39.08;;;30.52;;
25437;SDS011;13364;49.084;9.978;2022-08-19T12:24:15;40.10;;;30.77;;
25437;SDS011;13364;49.084;9.978;2022-08-19T12:26:49;40.70;;;31.60;;
25437;SDS011;13364;49.084;9.978;2022-08-19T12:29:19;38.95;;;29.42;;
25437;SDS011;13364;49.084;9.978;2022-08-19T12:31:50;38.60;;;29.95;;
25437;SDS011;13364;49.084;9.978;2022-08-19T12:34:18;41.13;;;29.92;;
25437;SDS011;13364;49.084;9.978;2022-08-19T12:36:46;36.40;;;29.05;;
25437;SDS011;13364;49.084;9.978;2022-08-19T12:39:15;36.55;;;26.50;;
25437;SDS011;13364;49.084;9.978;2022-08-19T12:41:43;34.67;;;27.05;;
25437;SDS011;13364;49.084;9.978;2022-08-19T12:44:19;34.08;;;27.50;;
25437;SDS011;13364;49.084;9.978;2022-08-19T12:46:55;35.83;;;26.77;;
25437;SDS011;13364;49.084;9.978;2022-08-19T12:49:22;34.80;;;27.13;;
25437;SDS011;13364;49.084;9.978;2022-08-19T12:52:11;33.65;;;26.55;;
25437;SDS011;13364;49.084;9.978;2022-08-19T12:54:48;34.97;;;26.17;;
25437;SDS011;13364;49.084;9.978;2022-08-19T12:57:19;31.48;;;26.23;;
25437;SDS011;13364;49.084;9.978;2022-08-19T13:02:19;32.05;;;26.00;;
25437;SDS011;13364;49.084;9.978;2022-08-19T13:04:47;31.58;;;27.23;;
25437;SDS011;13364;49.084;9.978;2022-08-19T13:07:14;37.40;;;27.95;;
25437;SDS011;13364;49.084;9.978;2022-08-19T13:09:41;35.13;;;26.92;;
25437;SDS011;13364;49.084;9.978;2022-08-19T13:12:08;32.95;;;25.33;;
25437;SDS011;13364;49.084;9.978;2022-08-19T13:14:39;34.08;;;26.50;;
25437;SDS011;13364;49.084;9.978;2022-08-19T13:17:07;32.92;;;26.65;;
25437;SDS011;13364;49.084;9.978;2022-08-19T13:19:36;33.25;;;27.33;;
25437;SDS011;13364;49.084;9.978;2022-08-19T13:22:03;34.73;;;26.73;;
25437;SDS011;13364;49.084;9.978;2022-08-19T13:24:40;33.70;;;26.90;;
25437;SDS011;13364;49.084;9.978;2022-08-19T13:27:12;33.53;;;26.35;;
25437;SDS011;13364;49.084;9.978;2022-08-19T13:29:41;34.22;;;27.10;;
25437;SDS011;13364;49.084;9.978;2022-08-19T13:32:28;34.90;;;26.55;;
25437;SDS011;13364;49.084;9.978;2022-08-19T13:35:15;34.45;;;26.83;;
25437;SDS011;13364;49.084;9.978;2022-08-19T13:37:43;33.85;;;26.75;;
25437;SDS011;13364;49.084;9.978;2022-08-19T13:40:15;34.07;;;27.13;;
25437;SDS011;13364;49.084;9.978;2022-08-19T13:42:50;32.28;;;26.27;;
25437;SDS011;13364;49.084;9.978;2022-08-19T13:45:20;28.98;;;23.63;;
25437;SDS011;13364;49.084;9.978;2022-08-19T13:47:49;33.13;;;24.30;;
25437;SDS011;13364;49.084;9.978;2022-08-19T13:50:26;30.13;;;25.45;;
25437;SDS011;13364;49.084;9.978;2022-08-19T13:52:55;28.45;;;22.73;;
25437;SDS011;13364;49.084;9.978;2022-08-19T13:55:23;24.98;;;20.45;;
25437;SDS011;13364;49.084;9.978;2022-08-19T13:57:51;23.52;;;19.48;;
25437;SDS011;13364;49.084;9.978;2022-08-19T14:00:20;27.77;;;21.10;;
25437;SDS011;13364;49.084;9.978;2022-08-19T14:02:50;22.05;;;19.25;;
25437;SDS011;13364;49.084;9.978;2022-08-19T14:05:19;24.55;;;21.35;;
25437;SDS011;13364;49.084;9.978;2022-08-19T14:07:46;27.23;;;20.20;;
25437;SDS011;13364;49.084;9.978;2022-08-19T14:10:15;23.80;;;19.00;;
25437;SDS011;13364;49.084;9.978;2022-08-19T14:12:42;22.13;;;19.33;;
25437;SDS011;13364;49.084;9.978;2022-08-19T14:15:10;21.70;;;18.83;;
25437;SDS011;13364;49.084;9.978;2022-08-19T14:17:39;21.85;;;17.60;;
25437;SDS011;13364;49.084;9.978;2022-08-19T14:20:08;20.52;;;18.10;;
25437;SDS011;13364;49.084;9.978;2022-08-19T14:22:44;17.77;;;14.35;;
25437;SDS011;13364;49.084;9.978;2022-08-19T14:25:15;16.08;;;14.10;;
25437;SDS011;13364;49.084;9.978;2022-08-19T14:27:44;17.38;;;15.35;;
25437;SDS011;13364;49.084;9.978;2022-08-19T14:30:14;18.35;;;16.40;;
25437;SDS011;13364;49.084;9.978;2022-08-19T14:32:43;18.50;;;15.32;;
25437;SDS011;13364;49.084;9.978;2022-08-19T14:35:11;20.55;;;15.48;;
25437;SDS011;13364;49.084;9.978;2022-08-19T14:37:39;21.77;;;16.83;;
25437;SDS011;13364;49.084;9.978;2022-08-19T14:40:23;20.70;;;15.73;;
25437;SDS011;13364;49.084;9.978;2022-08-19T14:42:52;20.90;;;15.95;;
25437;SDS011;13364;49.084;9.978;2022-08-19T14:45:26;18.13;;;16.23;;
25437;SDS011;13364;49.084;9.978;2022-08-19T14:47:54;17.85;;;15.70;;
25437;SDS011;13364;49.084;9.978;2022-08-19T14:50:22;18.77;;;15.43;;
25437;SDS011;13364;49.084;9.978;2022-08-19T14:52:49;20.60;;;15.88;;
25437;SDS011;13364;49.084;9.978;2022-08-19T14:55:18;19.42;;;16.35;;
25437;SDS011;13364;49.084;9.978;2022-08-19T14:57:45;17.65;;;15.02;;
25437;SDS011;13364;49.084;9.978;2022-08-19T15:00:13;21.45;;;16.80;;
25437;SDS011;13364;49.084;9.978;2022-08-19T15:02:40;20.98;;;16.27;;
25437;SDS011;13364;49.084;9.978;2022-08-19T15:07:39;23.88;;;17.42;;
25437;SDS011;13364;49.084;9.978;2022-08-19T15:10:08;24.45;;;21.05;;
25437;SDS011;13364;49.084;9.978;2022-08-19T15:15:10;29.42;;;22.17;;
25437;SDS011;13364;49.084;9.978;2022-08-19T15:17:42;27.85;;;22.48;;
25437;SDS011;13364;49.084;9.978;2022-08-19T15:20:13;29.30;;;23.38;;
25437;SDS011;13364;49.084;9.978;2022-08-19T15:22:42;30.02;;;23.73;;
25437;SDS011;13364;49.084;9.978;2022-08-19T15:25:10;30.00;;;23.80;;
25437;SDS011;13364;49.084;9.978;2022-08-19T15:27:39;27.85;;;23.15;;
25437;SDS011;13364;49.084;9.978;2022-08-19T15:30:07;31.92;;;24.65;;
25437;SDS011;13364;49.084;9.978;2022-08-19T15:32:36;27.45;;;22.67;;
25437;SDS011;13364;49.084;9.978;2022-08-19T15:35:05;32.35;;;23.77;;
25437;SDS011;13364;49.084;9.978;2022-08-19T15:37:33;26.38;;;23.35;;
25437;SDS011;13364;49.084;9.978;2022-08-19T15:40:03;28.13;;;24.65;;
25437;SDS011;13364;49.084;9.978;2022-08-19T15:42:35;26.33;;;22.23;;
25437;SDS011;13364;49.084;9.978;2022-08-19T15:45:04;32.25;;;24.23;;
25437;SDS011;13364;49.084;9.978;2022-08-19T15:47:32;27.17;;;21.42;;
25437;SDS011;13364;49.084;9.978;2022-08-19T15:50:05;26.25;;;23.40;;
25437;SDS011;13364;49.084;9.978;2022-08-19T15:52:37;27.48;;;24.35;;
25437;SDS011;13364;49.084;9.978;2022-08-19T15:55:32;30.55;;;23.38;;
25437;SDS011;13364;49.084;9.978;2022-08-19T15:58:02;26.08;;;23.17;;
25437;SDS011;13364;49.084;9.978;2022-08-19T16:01:03;31.83;;;23.05;;
25437;SDS011;13364;49.084;9.978;2022-08-19T16:03:53;27.10;;;22.95;;
25437;SDS011;13364;49.084;9.978;2022-08-19T16:06:49;28.85;;;23.58;;
25437;SDS011;13364;49.084;9.978;2022-08-19T16:09:18;29.95;;;24.48;;
25437;SDS011;13364;49.084;9.978;2022-08-19T16:11:53;30.38;;;25.13;;